Time;durP1;ratioP1;P1;durP2;ratioP2;P2;SDS_P1;SDS_P2;PMS_P1;PMS_P2;Temp;Humidity;BMP_temperature;BMP_pressure;BME280_temperature;BME280_humidity;BME280_pressure;Samples;Min_cycle;Max_cycle;Signal;HPM_P1;HPM_P2
2021/11/14 00:00:23;;;;;;;50.10;26.02;;;;;;;10.82;100.00;101878.81;1785758;79;21652;-56
2021/11/14 00:02:50;;;;;;;47.43;26.65;;;;;;;10.86;100.00;101863.98;1785972;78;21068;-58
2021/11/14 00:05:16;;;;;;;55.33;28.30;;;;;;;10.86;100.00;101861.77;1787532;79;20945;-57
2021/11/14 00:07:43;;;;;;;44.42;25.40;;;;;;;10.83;100.00;101861.36;1785214;79;21104;-57
2021/11/14 00:10:10;;;;;;;45.95;25.32;;;;;;;10.82;100.00;101854.66;1785528;77;21051;-57
2021/11/14 00:12:38;;;;;;;48.68;25.62;;;;;;;10.83;100.00;101855.98;1793512;78;21118;-57
2021/11/14 00:15:07;;;;;;;45.52;24.37;;;;;;;10.89;100.00;101848.29;1786725;79;21458;-61
2021/11/14 00:17:35;;;;;;;43.63;24.63;;;;;;;10.89;100.00;101844.27;1790799;79;21623;-60
2021/11/14 00:20:08;;;;;;;42.78;22.85;;;;;;;10.84;100.00;101852.39;1788499;77;21058;-57
2021/11/14 00:22:34;;;;;;;44.90;23.77;;;;;;;10.85;100.00;101859.52;1783851;79;21512;-61
2021/11/14 00:25:02;;;;;;;46.70;22.45;;;;;;;10.89;100.00;101853.66;1785494;78;21551;-61
2021/11/14 00:27:29;;;;;;;45.38;22.80;;;;;;;10.88;100.00;101850.55;1783605;79;21543;-56
2021/11/14 00:29:56;;;;;;;41.18;22.55;;;;;;;10.84;100.00;101847.02;1793063;78;21323;-56
2021/11/14 00:32:24;;;;;;;43.23;22.17;;;;;;;10.83;100.00;101844.36;1792044;79;21528;-60
2021/11/14 00:34:51;;;;;;;47.25;23.60;;;;;;;10.84;100.00;101852.39;1788991;79;21086;-60
2021/11/14 00:37:19;;;;;;;40.70;22.22;;;;;;;10.84;100.00;101838.98;1792618;78;21119;-59
2021/11/14 00:39:46;;;;;;;42.70;23.02;;;;;;;10.83;100.00;101845.26;1789204;79;21149;-57
2021/11/14 00:42:13;;;;;;;42.58;23.00;;;;;;;10.81;100.00;101840.37;1788333;78;21068;-57
2021/11/14 00:44:39;;;;;;;49.25;23.98;;;;;;;10.82;100.00;101831.41;1785006;79;21113;-61
2021/11/14 00:47:07;;;;;;;44.93;24.45;;;;;;;10.87;100.00;101827.31;1789295;79;21396;-57
2021/11/14 00:49:36;;;;;;;44.13;23.20;;;;;;;10.94;100.00;101828.95;1790353;77;22456;-60
2021/11/14 00:52:04;;;;;;;44.75;24.12;;;;;;;10.94;100.00;101833.42;1789974;79;21022;-57
2021/11/14 00:54:32;;;;;;;44.63;23.15;;;;;;;10.89;100.00;101826.35;1792028;79;21080;-57
2021/11/14 00:56:59;;;;;;;41.65;23.90;;;;;;;10.85;100.00;101832.70;1789490;79;21710;-59
2021/11/14 00:59:25;;;;;;;42.55;23.75;;;;;;;10.80;100.00;101829.66;1791013;77;21725;-62
2021/11/14 01:01:52;;;;;;;42.50;23.92;;;;;;;10.73;100.00;101819.53;1790413;79;21117;-57
2021/11/14 01:04:19;;;;;;;45.35;24.90;;;;;;;10.69;100.00;101821.81;1770180;79;21102;-61
2021/11/14 01:06:45;;;;;;;47.13;24.82;;;;;;;10.66;100.00;101810.70;1783232;79;21557;-60
2021/11/14 01:09:12;;;;;;;50.65;23.05;;;;;;;10.66;100.00;101817.85;1789081;77;20985;-60
2021/11/14 01:11:39;;;;;;;41.90;24.92;;;;;;;10.66;100.00;101819.19;1782778;79;21087;-57
2021/11/14 01:14:06;;;;;;;47.88;24.43;;;;;;;10.69;100.00;101821.81;1798738;79;21139;-58
2021/11/14 01:16:33;;;;;;;41.25;23.75;;;;;;;10.73;100.00;101825.77;1782469;79;21343;-60
2021/11/14 01:19:00;;;;;;;48.00;25.95;;;;;;;10.73;100.00;101834.28;1786913;77;20990;-57
2021/11/14 01:21:28;;;;;;;48.33;26.27;;;;;;;10.69;100.00;101825.39;1790164;78;21099;-61
2021/11/14 01:23:55;;;;;;;50.17;25.95;;;;;;;10.65;100.00;101825.47;1786441;78;21068;-61
2021/11/14 01:26:22;;;;;;;48.30;25.45;;;;;;;10.58;100.00;101827.38;1779535;79;21131;-60
2021/11/14 01:28:49;;;;;;;46.00;25.10;;;;;;;10.53;100.00;101828.81;1784969;77;21083;-60
2021/11/14 01:31:16;;;;;;;46.00;25.08;;;;;;;10.50;100.00;101830.22;1792576;79;20970;-61
2021/11/14 01:33:43;;;;;;;46.00;25.15;;;;;;;10.48;100.00;101826.64;1787719;79;21052;-60
2021/11/14 01:36:10;;;;;;;44.55;25.57;;;;;;;10.48;100.00;101833.82;1784552;78;21039;-60
2021/11/14 01:38:37;;;;;;;46.77;25.47;;;;;;;10.49;100.00;101831.09;1787785;78;21103;-61
2021/11/14 01:41:07;;;;;;;45.85;25.68;;;;;;;10.54;100.00;101829.25;1775257;79;21080;-60
2021/11/14 01:43:46;;;;;;;40.78;23.12;;;;;;;10.59;100.00;101834.06;1783773;79;21480;-56
2021/11/14 01:46:13;;;;;;;41.68;24.60;;;;;;;10.60;100.00;101827.78;1779334;79;21101;-57
2021/11/14 01:48:40;;;;;;;44.70;24.43;;;;;;;10.57;100.00;101825.16;1768015;78;21360;-57
2021/11/14 01:51:07;;;;;;;45.60;25.32;;;;;;;10.52;100.00;101825.70;1760904;78;21151;-57
2021/11/14 01:53:35;;;;;;;48.73;25.43;;;;;;;10.49;100.00;101830.23;1770152;78;21114;-57
2021/11/14 01:56:04;;;;;;;39.75;23.47;;;;;;;10.46;100.00;101824.45;1775222;79;21118;-57
2021/11/14 01:58:31;;;;;;;40.50;24.50;;;;;;;10.51;100.00;101829.74;1763897;79;21051;-57
2021/11/14 02:01:08;;;;;;;45.52;24.85;;;;;;;10.56;100.00;101831.44;1766136;79;21067;-56
2021/11/14 02:03:35;;;;;;;51.55;25.75;;;;;;;10.58;100.00;101829.61;1776814;78;21673;-56
2021/11/14 02:06:04;;;;;;;43.85;25.25;;;;;;;10.65;100.00;101829.49;1777172;78;21042;-57
2021/11/14 02:08:31;;;;;;;46.75;25.40;;;;;;;10.71;100.00;101829.38;1759382;79;21083;-57
2021/11/14 02:10:57;;;;;;;48.55;25.15;;;;;;;10.71;100.00;101828.93;1771238;79;21575;-57
2021/11/14 02:13:24;;;;;;;44.77;23.85;;;;;;;10.76;100.00;101830.20;1780857;79;21078;-58
2021/11/14 02:15:51;;;;;;;48.42;24.57;;;;;;;10.78;100.00;101833.73;1768355;79;21120;-57
2021/11/14 02:18:18;;;;;;;45.43;23.85;;;;;;;10.72;100.00;101832.48;1764183;79;21417;-57
2021/11/14 02:20:46;;;;;;;43.08;24.52;;;;;;;10.65;100.00;101838.44;1776635;79;21078;-57
2021/11/14 02:23:16;;;;;;;46.92;23.40;;;;;;;10.59;100.00;101831.38;1772369;79;21040;-60
2021/11/14 02:25:47;;;;;;;42.25;23.15;;;;;;;10.54;100.00;101834.61;1760553;79;21109;-57
2021/11/14 02:28:15;;;;;;;50.65;24.10;;;;;;;10.54;100.00;101831.92;1774818;79;21448;-61
2021/11/14 02:30:42;;;;;;;41.75;21.73;;;;;;;10.55;100.00;101831.02;1771450;79;21124;-57
2021/11/14 02:33:09;;;;;;;42.35;21.87;;;;;;;10.57;100.00;101833.20;1762193;79;21019;-60
2021/11/14 02:35:38;;;;;;;37.53;21.02;;;;;;;10.63;100.00;101839.37;1766292;79;21079;-57
2021/11/14 02:38:05;;;;;;;39.27;22.48;;;;;;;10.70;100.00;101836.99;1773461;79;21476;-61
2021/11/14 02:40:32;;;;;;;41.02;21.57;;;;;;;10.72;100.00;101830.70;1761525;79;21917;-58
2021/11/14 02:42:59;;;;;;;38.20;22.13;;;;;;;10.69;100.00;101830.77;1767421;79;21047;-60
2021/11/14 02:45:27;;;;;;;38.15;21.02;;;;;;;10.68;100.00;101837.48;1808810;77;21285;-57
2021/11/14 02:47:53;;;;;;;35.48;21.15;;;;;;;10.63;100.00;101828.64;1807898;78;21055;-61
2021/11/14 02:50:21;;;;;;;35.92;20.43;;;;;;;10.60;100.00;101821.52;1802936;78;21103;-57
2021/11/14 02:52:48;;;;;;;41.53;21.82;;;;;;;10.58;100.00;101828.27;1803944;78;21906;-58
2021/11/14 02:55:17;;;;;;;39.13;19.23;;;;;;;10.57;100.00;101822.48;1804485;77;21081;-56
2021/11/14 02:57:44;;;;;;;29.50;17.45;;;;;;;10.59;100.00;101821.99;1768208;78;21055;-60
2021/11/14 03:00:15;;;;;;;37.85;18.50;;;;;;;10.63;100.00;101834.00;1802368;78;21057;-61
2021/11/14 03:02:42;;;;;;;32.33;18.30;;;;;;;10.68;100.00;101824.97;1799876;78;21124;-63
2021/11/14 03:05:10;;;;;;;31.17;17.75;;;;;;;10.70;100.00;101831.19;1815228;77;21590;-60
2021/11/14 03:07:37;;;;;;;29.50;16.85;;;;;;;10.69;100.00;101826.73;1797915;78;20987;-60
2021/11/14 03:10:07;;;;;;;30.48;16.85;;;;;;;10.65;100.00;101834.86;1806946;78;21321;-59
2021/11/14 03:12:34;;;;;;;29.12;16.05;;;;;;;10.62;100.00;101828.22;1781026;77;21019;-60
2021/11/14 03:15:01;;;;;;;29.60;16.48;;;;;;;10.62;100.00;101822.41;1799046;78;20973;-61
2021/11/14 03:17:29;;;;;;;29.98;17.07;;;;;;;10.64;100.00;101818.34;1815105;78;21082;-61
2021/11/14 03:19:55;;;;;;;34.10;15.25;;;;;;;10.62;100.00;101818.83;1811279;78;21089;-61
2021/11/14 03:22:22;;;;;;;25.25;14.03;;;;;;;10.61;100.00;101817.95;1799116;77;21283;-61
2021/11/14 03:24:48;;;;;;;27.65;14.60;;;;;;;10.64;100.00;101817.00;1801753;78;21021;-61
2021/11/14 03:27:16;;;;;;;29.35;15.65;;;;;;;10.71;100.00;101813.28;1800202;78;21077;-61
2021/11/14 03:29:43;;;;;;;23.42;13.72;;;;;;;10.78;100.00;101820.32;1800322;78;21832;-60
2021/11/14 03:32:13;;;;;;;29.90;15.58;;;;;;;10.78;100.00;101820.32;1802344;78;21442;-60
2021/11/14 03:34:40;;;;;;;28.50;15.45;;;;;;;10.73;100.00;101823.55;1805690;78;21457;-60
2021/11/14 03:37:18;;;;;;;28.32;15.80;;;;;;;10.68;100.00;101818.27;1810165;78;20974;-60
2021/11/14 03:39:45;;;;;;;25.23;14.83;;;;;;;10.63;100.00;101824.17;1796801;78;21415;-60
2021/11/14 03:42:12;;;;;;;32.35;15.48;;;;;;;10.59;100.00;101823.77;1803814;77;21730;-60
2021/11/14 03:44:40;;;;;;;25.40;14.75;;;;;;;10.53;100.00;101822.11;1795651;78;21020;-60
2021/11/14 03:47:09;;;;;;;25.25;14.05;;;;;;;10.52;100.00;101819.00;1782214;79;21043;-60
2021/11/14 03:49:37;;;;;;;24.50;14.60;;;;;;;10.57;100.00;101819.80;1784813;78;21076;-61
2021/11/14 03:52:09;;;;;;;27.30;14.78;;;;;;;10.66;100.00;101826.80;1789551;77;21496;-61
2021/11/14 03:54:35;;;;;;;22.70;14.23;;;;;;;10.69;100.00;101821.81;1785215;79;21113;-60
2021/11/14 03:57:03;;;;;;;23.42;13.65;;;;;;;10.67;100.00;101816.94;1781989;79;21454;-60
2021/11/14 03:59:29;;;;;;;23.32;14.30;;;;;;;10.62;100.00;101816.14;1784594;79;21030;-60
2021/11/14 04:01:56;;;;;;;29.45;16.25;;;;;;;10.57;100.00;101814.44;1789466;79;21325;-60
2021/11/14 04:04:23;;;;;;;32.75;17.15;;;;;;;10.53;100.00;101814.06;1778536;79;21478;-61
2021/11/14 04:06:49;;;;;;;34.80;17.25;;;;;;;10.48;100.00;101815.05;1781092;78;21136;-61
2021/11/14 04:09:16;;;;;;;30.37;17.60;;;;;;;10.41;100.00;101807.13;1784123;79;20939;-61
2021/11/14 04:11:43;;;;;;;30.92;17.87;;;;;;;10.40;100.00;101804.42;1784717;77;21047;-61
2021/11/14 04:14:10;;;;;;;32.40;18.23;;;;;;;10.40;100.00;101793.30;1784873;79;21442;-58
2021/11/14 04:16:37;;;;;;;38.75;18.07;;;;;;;10.39;100.00;101795.95;1789023;78;21258;-58
2021/11/14 04:19:04;;;;;;;32.83;16.93;;;;;;;10.36;100.00;101791.52;1789284;79;21188;-58
2021/11/14 04:21:30;;;;;;;41.20;20.15;;;;;;;10.37;100.00;101804.48;1784875;79;20990;-58
2021/11/14 04:23:57;;;;;;;38.65;19.90;;;;;;;10.40;100.00;101807.11;1779427;79;21536;-58
2021/11/14 04:26:24;;;;;;;31.60;17.62;;;;;;;10.44;100.00;101813.77;1778959;79;21086;-58
2021/11/14 04:28:50;;;;;;;34.75;17.07;;;;;;;10.47;100.00;101811.47;1793890;79;21043;-58
2021/11/14 04:31:17;;;;;;;29.85;17.55;;;;;;;10.50;100.00;101815.47;1790029;78;21822;-58
2021/11/14 04:33:44;;;;;;;32.88;17.27;;;;;;;10.54;100.00;101818.52;1789355;79;21583;-58
2021/11/14 04:36:11;;;;;;;33.90;17.70;;;;;;;10.52;100.00;101824.37;1792363;79;20989;-58
2021/11/14 04:38:37;;;;;;;33.60;16.77;;;;;;;10.51;100.00;101821.26;1783078;78;21540;-58
2021/11/14 04:41:04;;;;;;;35.03;16.95;;;;;;;10.51;100.00;101837.34;1784468;79;21105;-58
2021/11/14 04:43:31;;;;;;;32.78;17.52;;;;;;;10.52;100.00;101831.07;1786992;79;21123;-58
2021/11/14 04:45:57;;;;;;;27.02;15.45;;;;;;;10.54;100.00;101833.70;1785905;78;21052;-58
2021/11/14 04:48:24;;;;;;;28.40;16.40;;;;;;;10.50;100.00;101840.94;1781871;79;22001;-58
2021/11/14 04:50:52;;;;;;;27.35;14.68;;;;;;;10.46;100.00;101832.50;1788593;77;21782;-58
2021/11/14 04:53:18;;;;;;;23.85;14.63;;;;;;;10.46;100.00;101837.86;1799293;79;21041;-58
2021/11/14 04:55:45;;;;;;;30.85;15.55;;;;;;;10.53;100.00;101844.91;1776208;79;21529;-58
2021/11/14 04:58:13;;;;;;;32.17;15.40;;;;;;;10.58;100.00;101852.84;1784469;78;21481;-58
2021/11/14 05:00:44;;;;;;;30.80;16.25;;;;;;;10.57;100.00;101860.02;1790967;77;21116;-57
2021/11/14 05:03:11;;;;;;;25.85;16.10;;;;;;;10.53;100.00;101858.31;1790678;79;21134;-57
2021/11/14 05:05:38;;;;;;;27.65;16.55;;;;;;;10.49;100.00;101860.59;1776054;79;21133;-57
2021/11/14 05:08:06;;;;;;;30.75;15.88;;;;;;;10.44;100.00;101861.13;1786801;78;21031;-58
2021/11/14 05:10:33;;;;;;;29.98;16.00;;;;;;;10.47;100.00;101866.44;1781690;78;21060;-57
2021/11/14 05:13:01;;;;;;;32.98;17.02;;;;;;;10.53;100.00;101870.82;1783694;79;21112;-58
2021/11/14 05:15:29;;;;;;;29.90;17.05;;;;;;;10.55;100.00;101870.34;1781223;79;21170;-58
2021/11/14 05:17:56;;;;;;;31.65;16.30;;;;;;;10.54;100.00;101870.81;1790803;77;21517;-57
2021/11/14 05:20:24;;;;;;;26.95;15.08;;;;;;;10.53;100.00;101870.38;1779638;79;21125;-57
2021/11/14 05:22:51;;;;;;;25.50;14.63;;;;;;;10.53;100.00;101875.74;1786433;78;21079;-57
2021/11/14 05:25:18;;;;;;;25.97;15.13;;;;;;;10.57;100.00;101876.12;1790565;79;21023;-57
2021/11/14 05:27:44;;;;;;;30.32;15.95;;;;;;;10.58;100.00;101875.20;1796238;77;21033;-58
2021/11/14 05:30:12;;;;;;;29.98;16.60;;;;;;;10.56;100.00;101879.71;1785158;79;21046;-57
2021/11/14 05:32:39;;;;;;;32.55;16.93;;;;;;;10.53;100.00;101879.77;1792980;78;21135;-57
2021/11/14 05:35:08;;;;;;;33.92;16.90;;;;;;;10.50;100.00;101882.50;1788519;79;21396;-56
2021/11/14 05:37:36;;;;;;;28.47;16.77;;;;;;;10.48;100.00;101889.66;1781784;77;21451;-57
2021/11/14 05:40:05;;;;;;;33.90;17.02;;;;;;;10.45;100.00;101887.03;1777196;79;21095;-57
2021/11/14 05:42:34;;;;;;;28.95;16.15;;;;;;;10.43;100.00;101890.20;1783869;78;21013;-58
2021/11/14 05:45:01;;;;;;;27.95;16.82;;;;;;;10.47;100.00;101885.20;1777863;79;21045;-58
2021/11/14 05:47:28;;;;;;;27.60;15.65;;;;;;;10.52;100.00;101898.11;1776162;79;21030;-58
2021/11/14 05:49:54;;;;;;;34.80;18.27;;;;;;;10.51;100.00;101901.70;1777240;79;21088;-58
2021/11/14 05:52:21;;;;;;;33.18;18.35;;;;;;;10.47;100.00;101895.94;1773875;79;21025;-58
2021/11/14 05:54:48;;;;;;;36.10;18.05;;;;;;;10.42;100.00;101901.83;1765912;79;21039;-57
2021/11/14 05:57:15;;;;;;;33.30;18.27;;;;;;;10.38;100.00;101895.59;1778379;78;21122;-57
2021/11/14 06:02:31;;;;;;;35.05;17.75;;;;;;;10.30;100.00;101893.06;1769971;79;21065;-57
2021/11/14 06:04:58;;;;;;;35.98;18.50;;;;;;;10.28;100.00;101898.90;1771107;79;21601;-61
2021/11/14 06:07:16;;;;;;;31.17;17.12;;;;;;;10.27;100.00;101886.38;1772707;79;20972;-57
2021/11/14 06:09:44;;;;;;;34.08;18.00;;;;;;;10.26;100.00;101906.05;1777247;79;21110;-57
2021/11/14 06:12:11;;;;;;;30.17;18.02;;;;;;;10.25;100.00;101898.05;1771201;78;21003;-57
2021/11/14 06:14:39;;;;;;;33.85;17.75;;;;;;;10.25;100.00;101890.01;1776291;79;21012;-57
2021/11/14 06:17:06;;;;;;;34.83;18.85;;;;;;;10.28;100.00;101898.90;1785742;79;20989;-58
2021/11/14 06:19:33;;;;;;;35.15;19.50;;;;;;;10.36;100.00;101901.91;1776445;79;21133;-57
2021/11/14 06:21:59;;;;;;;32.00;18.07;;;;;;;10.38;100.00;101904.11;1774511;79;22241;-58
2021/11/14 06:24:26;;;;;;;40.78;20.68;;;;;;;10.36;100.00;101900.56;1781389;79;21107;-57
2021/11/14 06:26:53;;;;;;;34.92;19.02;;;;;;;10.31;100.00;101896.17;1778490;79;21041;-58
2021/11/14 06:29:19;;;;;;;33.25;18.25;;;;;;;10.30;100.00;101898.42;1774309;78;21043;-57
2021/11/14 06:31:46;;;;;;;44.20;20.23;;;;;;;10.32;100.00;101893.92;1779266;79;21022;-57
2021/11/14 06:34:13;;;;;;;32.23;17.17;;;;;;;10.37;100.00;101898.31;1783366;78;21794;-58
2021/11/14 06:36:39;;;;;;;34.80;17.62;;;;;;;10.49;100.00;101915.56;1770860;79;20955;-57
2021/11/14 06:39:06;;;;;;;32.53;18.00;;;;;;;10.53;100.00;101907.92;1770392;79;20988;-57
2021/11/14 06:41:33;;;;;;;35.05;18.45;;;;;;;10.53;100.00;101914.63;1778423;79;21053;-58
2021/11/14 06:44:00;;;;;;;35.63;18.17;;;;;;;10.52;100.00;101908.84;1773996;79;21123;-58
2021/11/14 06:46:26;;;;;;;34.10;19.25;;;;;;;10.51;100.00;101903.05;1792061;78;21507;-58
2021/11/14 06:48:53;;;;;;;31.42;18.20;;;;;;;10.51;100.00;101907.06;1804946;78;21118;-58
2021/11/14 06:51:19;;;;;;;31.25;17.57;;;;;;;10.51;100.00;101912.87;1805797;77;21132;-58
2021/11/14 06:53:46;;;;;;;27.85;17.12;;;;;;;10.49;100.00;101911.54;1812095;77;22328;-58
2021/11/14 06:56:14;;;;;;;31.48;16.32;;;;;;;10.49;100.00;101915.56;1799210;78;21013;-58
2021/11/14 06:58:41;;;;;;;36.80;17.87;;;;;;;10.51;100.00;101910.19;1810820;78;21939;-57
2021/11/14 07:01:07;;;;;;;31.30;17.75;;;;;;;10.53;100.00;101901.66;1803715;78;21544;-58
2021/11/14 07:03:34;;;;;;;33.10;18.12;;;;;;;10.57;100.00;101910.98;1804405;77;21043;-58
2021/11/14 07:06:01;;;;;;;37.05;17.48;;;;;;;10.59;100.00;101902.89;1807029;77;21077;-58
2021/11/14 07:08:28;;;;;;;33.95;17.37;;;;;;;10.65;100.00;101909.95;1798300;78;21061;-58
2021/11/14 07:10:55;;;;;;;30.17;15.88;;;;;;;10.75;100.00;101900.39;1803671;78;21744;-58
2021/11/14 07:13:22;;;;;;;31.93;17.05;;;;;;;10.89;100.00;101900.14;1801254;77;21566;-58
2021/11/14 07:15:48;;;;;;;30.00;16.27;;;;;;;11.02;99.59;101910.19;1804322;78;21037;-59
2021/11/14 07:18:16;;;;;;;28.27;16.50;;;;;;;11.07;99.08;101896.70;1802340;78;21048;-57
2021/11/14 07:20:42;;;;;;;33.95;18.35;;;;;;;11.09;98.41;101902.91;1803836;78;21087;-59
2021/11/14 07:23:09;;;;;;;35.55;17.17;;;;;;;11.08;98.41;101898.47;1806899;78;21152;-58
2021/11/14 07:25:36;;;;;;;30.23;15.95;;;;;;;11.10;98.42;101904.69;1802063;78;21069;-58
2021/11/14 07:28:03;;;;;;;29.30;15.58;;;;;;;11.12;97.80;101905.54;1804492;78;21545;-57
2021/11/14 07:30:30;;;;;;;29.37;15.38;;;;;;;11.08;97.41;101913.23;1795213;78;21480;-61
2021/11/14 07:32:57;;;;;;;26.40;15.70;;;;;;;11.02;97.06;101910.66;1808346;77;21048;-61
2021/11/14 07:35:25;;;;;;;29.37;15.90;;;;;;;10.94;97.09;101904.53;1806008;78;21374;-61
2021/11/14 07:37:51;;;;;;;29.80;15.15;;;;;;;10.87;97.53;101903.30;1809186;78;21028;-60
2021/11/14 07:40:20;;;;;;;27.30;15.45;;;;;;;10.81;97.46;101899.40;1802443;78;21083;-60
2021/11/14 07:42:48;;;;;;;29.07;16.82;;;;;;;10.75;97.75;101899.52;1810324;77;21030;-60
2021/11/14 07:45:16;;;;;;;28.55;16.17;;;;;;;10.76;98.32;101898.61;1797708;77;20997;-61
2021/11/14 07:47:43;;;;;;;24.63;15.15;;;;;;;10.83;98.46;101897.58;1784188;78;21517;-63
2021/11/14 07:50:10;;;;;;;30.20;15.50;;;;;;;10.93;98.12;101902.32;1786640;78;20972;-61
2021/11/14 07:52:38;;;;;;;29.98;16.27;;;;;;;11.03;97.87;101903.04;1795797;77;21044;-61
2021/11/14 07:55:07;;;;;;;29.65;17.32;;;;;;;11.10;97.33;101912.73;1781837;79;21683;-60
2021/11/14 07:57:35;;;;;;;27.60;15.53;;;;;;;11.09;96.96;101906.94;1780980;79;21083;-61
2021/11/14 08:00:04;;;;;;;31.82;17.67;;;;;;;11.08;96.64;101915.05;1785222;78;21121;-62
2021/11/14 08:02:33;;;;;;;28.35;16.17;;;;;;;11.03;96.13;101904.38;1789840;77;21505;-62
2021/11/14 08:05:01;;;;;;;26.45;16.35;;;;;;;11.03;96.02;101908.41;1774064;79;21098;-62
2021/11/14 08:07:27;;;;;;;25.52;15.30;;;;;;;11.01;96.20;101912.92;1786933;78;20966;-61
2021/11/14 08:09:54;;;;;;;30.17;17.23;;;;;;;11.03;95.78;101913.77;1789361;77;21038;-61
2021/11/14 08:12:20;;;;;;;36.80;16.55;;;;;;;11.08;96.30;101913.23;1779482;78;21759;-61
2021/11/14 08:14:49;;;;;;;32.20;17.20;;;;;;;11.15;96.50;101915.34;1785111;79;21038;-61
2021/11/14 08:17:16;;;;;;;34.05;17.57;;;;;;;11.17;96.21;101918.44;1788019;78;20981;-62
2021/11/14 08:19:44;;;;;;;30.20;16.90;;;;;;;11.09;95.50;101914.99;1789007;77;21037;-62
2021/11/14 08:22:13;;;;;;;37.42;18.32;;;;;;;10.96;95.50;101907.63;1790527;79;20864;-61
2021/11/14 08:24:40;;;;;;;32.15;17.10;;;;;;;10.91;96.08;101911.30;1787198;79;21088;-62
2021/11/14 08:27:07;;;;;;;32.65;16.48;;;;;;;10.91;96.23;101927.40;1788016;78;21052;-61
2021/11/14 08:29:34;;;;;;;27.10;15.78;;;;;;;10.88;95.96;101915.81;1788862;78;21004;-62
2021/11/14 08:32:01;;;;;;;29.90;16.90;;;;;;;10.86;95.67;101923.00;1791008;79;21052;-61
2021/11/14 08:34:28;;;;;;;33.33;17.73;;;;;;;10.88;96.02;101918.49;1784723;79;21034;-61
2021/11/14 08:36:54;;;;;;;31.90;17.25;;;;;;;10.94;95.69;101912.58;1788613;78;22114;-62
2021/11/14 08:39:21;;;;;;;34.70;17.35;;;;;;;10.95;94.79;101918.41;1785951;77;21362;-60
2021/11/14 08:41:49;;;;;;;33.95;17.32;;;;;;;10.94;94.82;101911.23;1781898;78;21478;-60
2021/11/14 08:44:16;;;;;;;32.65;17.32;;;;;;;10.91;94.43;101918.00;1791227;78;21445;-58
2021/11/14 08:46:43;;;;;;;32.30;17.77;;;;;;;10.88;94.27;101906.89;1773480;79;21064;-58
2021/11/14 08:49:10;;;;;;;30.50;18.20;;;;;;;10.88;94.65;101909.10;1791331;77;21753;-58
2021/11/14 08:51:36;;;;;;;35.33;17.77;;;;;;;10.94;94.74;101907.21;1789278;78;21075;-57
2021/11/14 08:54:03;;;;;;;31.17;17.12;;;;;;;11.02;94.11;101906.64;1767720;79;21097;-58
2021/11/14 08:56:30;;;;;;;32.33;17.40;;;;;;;11.04;93.44;101910.17;1790062;78;21499;-58
2021/11/14 08:58:59;;;;;;;29.82;17.52;;;;;;;11.01;92.97;101914.27;1784290;77;21569;-58
2021/11/14 09:01:26;;;;;;;26.25;15.90;;;;;;;10.96;93.14;101906.77;1786333;78;21109;-59
2021/11/14 09:03:54;;;;;;;30.48;17.25;;;;;;;10.98;93.62;101921.03;1787947;79;21064;-57
2021/11/14 09:06:20;;;;;;;34.13;17.40;;;;;;;11.01;93.18;101915.13;1789758;78;20993;-58
2021/11/14 09:08:49;;;;;;;25.50;15.95;;;;;;;11.01;93.07;101915.13;1785740;77;21063;-61
2021/11/14 09:11:16;;;;;;;33.75;17.25;;;;;;;11.01;92.85;101913.79;1789458;78;21485;-58
2021/11/14 09:13:43;;;;;;;28.60;16.42;;;;;;;10.98;93.07;101918.34;1779898;79;21317;-58
2021/11/14 09:16:11;;;;;;;27.02;15.80;;;;;;;10.95;93.07;101911.70;1785402;79;21485;-58
2021/11/14 09:18:39;;;;;;;28.67;16.70;;;;;;;10.92;93.00;101909.05;1791128;77;21542;-58
2021/11/14 09:21:05;;;;;;;30.23;15.78;;;;;;;10.92;93.02;101909.05;1780364;78;21076;-58
2021/11/14 09:23:32;;;;;;;25.95;15.40;;;;;;;10.93;93.36;101909.47;1784559;79;21042;-57
2021/11/14 09:26:00;;;;;;;29.85;16.07;;;;;;;10.98;93.14;101903.59;1791994;78;21918;-58
2021/11/14 09:28:27;;;;;;;26.27;15.88;;;;;;;11.01;92.89;101899.50;1724747;81;21218;-60
2021/11/14 09:30:54;;;;;;;27.90;15.43;;;;;;;11.03;93.14;101889.62;1748330;79;21540;-61
2021/11/14 09:33:26;;;;;;;30.15;15.50;;;;;;;11.07;92.78;101898.03;1718018;82;21157;-59
2021/11/14 09:35:55;;;;;;;26.25;14.63;;;;;;;11.14;92.38;101889.42;1788708;78;21075;-60
2021/11/14 09:38:21;;;;;;;29.72;15.53;;;;;;;11.23;92.14;101895.07;1781227;77;21780;-59
2021/11/14 09:40:47;;;;;;;29.95;16.00;;;;;;;11.29;91.51;101894.50;1785511;78;22036;-59
2021/11/14 09:43:18;;;;;;;29.05;15.78;;;;;;;11.32;91.42;101885.48;1789414;78;21599;-59
2021/11/14 09:45:43;;;;;;;28.65;15.78;;;;;;;11.36;91.32;101888.52;1779365;78;21063;-61
2021/11/14 09:48:10;;;;;;;25.70;14.50;;;;;;;11.40;91.33;101874.59;1781069;78;20983;-61
2021/11/14 09:50:37;;;;;;;25.25;15.68;;;;;;;11.44;91.44;101877.19;1786857;79;21801;-62
2021/11/14 09:53:06;;;;;;;27.22;15.38;;;;;;;11.45;91.28;101869.55;1783990;79;21112;-61
2021/11/14 09:55:35;;;;;;;32.85;15.10;;;;;;;11.50;91.12;101876.63;1791151;77;21080;-60
2021/11/14 09:58:05;;;;;;;25.25;13.35;;;;;;;11.54;90.69;101881.02;1786588;79;21054;-62
2021/11/14 10:00:32;;;;;;;27.05;14.28;;;;;;;11.58;90.39;101869.28;1784605;78;21064;-62
2021/11/14 10:02:58;;;;;;;29.32;14.70;;;;;;;11.56;89.52;101868.43;1780453;79;21010;-61
2021/11/14 10:05:26;;;;;;;24.72;14.55;;;;;;;11.48;89.17;101867.25;1789510;77;21063;-61
2021/11/14 10:08:00;;;;;;;21.70;12.88;;;;;;;11.43;89.18;101867.37;1784936;78;21034;-63
2021/11/14 10:10:29;;;;;;;28.73;14.03;;;;;;;11.43;89.45;101861.99;1788993;78;21083;-62
2021/11/14 10:12:56;;;;;;;22.42;12.47;;;;;;;11.51;89.70;101869.00;1780232;79;21024;-62
2021/11/14 10:15:24;;;;;;;24.40;12.98;;;;;;;11.56;88.82;101860.37;1788970;77;21533;-63
2021/11/14 10:17:55;;;;;;;24.95;13.08;;;;;;;11.56;88.29;101861.72;1782437;79;21012;-62
2021/11/14 10:20:25;;;;;;;22.13;13.13;;;;;;;11.55;87.49;101863.98;1777384;78;21077;-60
2021/11/14 10:23:04;;;;;;;24.07;13.03;;;;;;;11.46;87.50;101856.55;1764212;79;21042;-62
2021/11/14 10:25:31;;;;;;;28.65;13.20;;;;;;;11.44;88.11;101850.33;1789509;77;21058;-62
2021/11/14 10:28:01;;;;;;;24.23;12.75;;;;;;;11.51;88.16;101848.41;1787893;79;21129;-63
2021/11/14 10:30:29;;;;;;;24.55;12.30;;;;;;;11.61;87.77;101851.78;1782769;79;21018;-62
2021/11/14 10:33:05;;;;;;;25.12;14.40;;;;;;;11.63;87.23;101842.33;1789205;78;21071;-63
2021/11/14 10:35:32;;;;;;;22.98;12.20;;;;;;;11.60;87.43;101840.58;1794211;77;21094;-62
2021/11/14 10:38:05;;;;;;;24.35;12.35;;;;;;;11.55;87.47;101838.46;1786013;78;21044;-64
2021/11/14 10:40:37;;;;;;;20.43;12.03;;;;;;;11.46;87.58;101845.81;1785897;78;21197;-63
2021/11/14 10:43:04;;;;;;;22.73;12.28;;;;;;;11.33;87.35;101830.86;1789349;78;21441;-64
2021/11/14 10:45:36;;;;;;;19.82;12.18;;;;;;;11.22;87.81;101839.14;1785102;77;21539;-61
2021/11/14 10:48:07;;;;;;;20.17;11.85;;;;;;;11.15;88.40;101832.13;1785719;79;21107;-61
2021/11/14 10:50:37;;;;;;;20.92;11.85;;;;;;;11.16;88.26;101838.83;1786511;78;21103;-63
2021/11/14 10:53:07;;;;;;;20.88;12.88;;;;;;;11.16;88.04;101837.48;1786426;78;21849;-62
2021/11/14 10:55:52;;;;;;;22.60;11.90;;;;;;;11.11;88.21;101817.02;1788071;78;21073;-61
2021/11/14 10:58:21;;;;;;;22.35;11.10;;;;;;;11.05;88.53;101818.02;1781872;78;21089;-63
2021/11/14 11:00:51;;;;;;;24.55;12.98;;;;;;;11.07;89.15;101821.55;1728451;81;21052;-62
2021/11/14 11:03:19;;;;;;;19.37;11.70;;;;;;;11.15;89.42;101819.58;1724338;82;21089;-62
2021/11/14 11:05:47;;;;;;;20.92;11.78;;;;;;;11.26;88.90;101815.81;1754220;79;21683;-63
2021/11/14 11:08:22;;;;;;;21.68;11.70;;;;;;;11.32;88.77;101814.33;1728338;80;21547;-63